Bowling Green Warren County Regional Airport
KBWG : now visible

Airfield :











YOU CAN JOIN US ON...

 
LOGIN :

Register | Disclaimer

   EN    FR    IT 

 









Legend :    VFR   Marginal VFR   IFR   Intensive IFR   Very Intensive IFR
Visi :
Ceiling :
>= 8 km
>= 3000ft
5 to 8 km
1000 to 3000 ft
1500m to 5 km
500 to 1000 ft
800 to 1500m
200 to 500 ft
< 800m
< 200 ft
Symbols :   Thunderstorms  Fog  Heavy snow  Heavy precipitations  Wind > 20 kt






- Airport Elevation : 547 ft


KBWG - Bowling Green Warren County Regional

CURRENT METAR :
  • 280853Z AUTO 23007KT 10SM OVC090 04/M04 A3007 RMK AO2 SLP184 T00441044 58019

EXPIRED METARs :
  • 280753Z AUTO 22008KT 10SM SCT060 OVC090 04/M04 A3009 RMK AO2 SLP191 T00391044
  • 280653Z AUTO 22008KT 10SM OVC075 04/M04 A3011 RMK AO2 SLP198 T00391044

TAF KBWG
Valid from the 28 at 08:00 until the 29 at 06:00 UTC


280816Z 2808/2906 24008KT P6SM VCSH SCT025 BKN040
TEMPO 2810/2814 5SM -RASN BR BKN015
FM281500 29009KT P6SM FEW025 SCT100
FM281700 29010G18KT P6SM SCT030 BKN050
FM282300 28010KT P6SM SCT025 BKN040
PROB30 2823/2904 5SM -RA BR BKN025



MET'MAP, your aeronautical weather chart ! - Copyright ORBIFLY December 2007 - Disclaimer

ORBIFLY MET'MAP TEAM :

Programming & Development : Alexandra Zaïnal
Concept & original design : Baudouin d'Aumeries
Assistance for programming : Marc-Olivier Méhu
Technical & hardware support : Manuel Goepfert

Contact : metmap@orbifly.com




SOURCES & CREDITS :

   NOAA       Earth
Advisory